sensor_id;sensor_type;location;lat;lon;timestamp;temperature;humidity
15815;DHT22;8008;50.024;8.172;2024-01-15T04:01:26;-0.70;99.90
15815;DHT22;8008;50.024;8.172;2024-01-15T04:03:55;-0.60;99.90
15815;DHT22;8008;50.024;8.172;2024-01-15T04:06:23;-0.70;99.90
15815;DHT22;8008;50.024;8.172;2024-01-15T04:08:52;-0.60;99.90
15815;DHT22;8008;50.024;8.172;2024-01-15T04:11:19;-0.60;99.90
15815;DHT22;8008;50.024;8.172;2024-01-15T04:13:49;-0.60;99.90
15815;DHT22;8008;50.024;8.172;2024-01-15T04:16:17;-0.70;99.90
15815;DHT22;8008;50.024;8.172;2024-01-15T04:18:47;-0.70;99.90
15815;DHT22;8008;50.024;8.172;2024-01-15T04:21:17;-0.70;99.90
15815;DHT22;8008;50.024;8.172;2024-01-15T04:23:44;-0.70;99.90
15815;DHT22;8008;50.024;8.172;2024-01-15T04:26:12;-0.70;99.90
15815;DHT22;8008;50.024;8.172;2024-01-15T04:28:40;-0.70;99.90
15815;DHT22;8008;50.024;8.172;2024-01-15T04:31:08;-0.70;99.90
15815;DHT22;8008;50.024;8.172;2024-01-15T04:33:36;-0.70;99.90
15815;DHT22;8008;50.024;8.172;2024-01-15T04:36:06;-0.70;99.90
15815;DHT22;8008;50.024;8.172;2024-01-15T04:38:34;-0.60;99.90
15815;DHT22;8008;50.024;8.172;2024-01-15T04:41:03;-0.60;99.90
15815;DHT22;8008;50.024;8.172;2024-01-15T04:43:31;-0.60;99.90
15815;DHT22;8008;50.024;8.172;2024-01-15T04:45:59;-0.60;99.90
15815;DHT22;8008;50.024;8.172;2024-01-15T04:48:27;-0.60;99.90
15815;DHT22;8008;50.024;8.172;2024-01-15T04:50:55;-0.60;99.90
15815;DHT22;8008;50.024;8.172;2024-01-15T04:53:24;-0.50;99.90
15815;DHT22;8008;50.024;8.172;2024-01-15T04:55:52;-0.50;99.90
15815;DHT22;8008;50.024;8.172;2024-01-15T04:58:20;-0.50;99.90
15815;DHT22;8008;50.024;8.172;2024-01-15T05:00:51;-0.50;99.90
15815;DHT22;8008;50.024;8.172;2024-01-15T05:03:19;-0.50;99.90
15815;DHT22;8008;50.024;8.172;2024-01-15T05:05:47;-0.40;99.90
15815;DHT22;8008;50.024;8.172;2024-01-15T05:08:15;-0.40;99.90
15815;DHT22;8008;50.024;8.172;2024-01-15T05:10:44;-0.40;99.90
15815;DHT22;8008;50.024;8.172;2024-01-15T05:13:12;-0.30;99.90
15815;DHT22;8008;50.024;8.172;2024-01-15T05:15:41;-0.40;99.90
15815;DHT22;8008;50.024;8.172;2024-01-15T05:18:09;-0.40;99.90
15815;DHT22;8008;50.024;8.172;2024-01-15T05:20:37;-0.50;99.90
15815;DHT22;8008;50.024;8.172;2024-01-15T05:23:05;-0.60;99.90
15815;DHT22;8008;50.024;8.172;2024-01-15T05:25:33;-0.70;99.90
15815;DHT22;8008;50.024;8.172;2024-01-15T05:28:02;-0.70;99.90
15815;DHT22;8008;50.024;8.172;2024-01-15T05:30:30;-0.70;99.90
15815;DHT22;8008;50.024;8.172;2024-01-15T05:32:58;-0.80;99.90
15815;DHT22;8008;50.024;8.172;2024-01-15T05:35:28;-0.70;99.90
15815;DHT22;8008;50.024;8.172;2024-01-15T05:37:56;-0.70;99.90
15815;DHT22;8008;50.024;8.172;2024-01-15T05:40:23;-0.70;99.90
15815;DHT22;8008;50.024;8.172;2024-01-15T05:42:51;-0.70;99.90
15815;DHT22;8008;50.024;8.172;2024-01-15T05:45:21;-0.70;99.90
15815;DHT22;8008;50.024;8.172;2024-01-15T05:47:49;-0.60;99.90
15815;DHT22;8008;50.024;8.172;2024-01-15T05:50:17;-0.60;99.90
15815;DHT22;8008;50.024;8.172;2024-01-15T05:52:45;-0.50;99.90
15815;DHT22;8008;50.024;8.172;2024-01-15T05:55:13;-0.50;99.90
15815;DHT22;8008;50.024;8.172;2024-01-15T05:57:41;-0.50;99.90
15815;DHT22;8008;50.024;8.172;2024-01-15T06:00:10;-0.50;99.90
15815;DHT22;8008;50.024;8.172;2024-01-15T06:02:39;-0.50;99.90
15815;DHT22;8008;50.024;8.172;2024-01-15T06:05:07;-0.40;99.90
15815;DHT22;8008;50.024;8.172;2024-01-15T06:07:35;-0.50;99.90
15815;DHT22;8008;50.024;8.172;2024-01-15T06:10:04;-0.40;99.90
15815;DHT22;8008;50.024;8.172;2024-01-15T06:12:32;-0.50;99.90
15815;DHT22;8008;50.024;8.172;2024-01-15T06:15:00;-0.40;99.90
15815;DHT22;8008;50.024;8.172;2024-01-15T06:17:29;-0.50;99.90
15815;DHT22;8008;50.024;8.172;2024-01-15T06:19:59;-0.50;99.90
15815;DHT22;8008;50.024;8.172;2024-01-15T06:22:27;-0.70;99.90
15815;DHT22;8008;50.024;8.172;2024-01-15T06:24:55;-0.70;99.90
15815;DHT22;8008;50.024;8.172;2024-01-15T06:27:23;-0.70;99.90
15815;DHT22;8008;50.024;8.172;2024-01-15T06:29:51;-0.70;99.90
15815;DHT22;8008;50.024;8.172;2024-01-15T06:32:19;-0.60;99.90
15815;DHT22;8008;50.024;8.172;2024-01-15T06:34:48;-0.60;99.90
15815;DHT22;8008;50.024;8.172;2024-01-15T06:37:17;-0.60;99.90
15815;DHT22;8008;50.024;8.172;2024-01-15T06:39:46;-0.60;99.90
15815;DHT22;8008;50.024;8.172;2024-01-15T06:42:15;-0.60;99.90
15815;DHT22;8008;50.024;8.172;2024-01-15T06:44:42;-0.60;99.90
15815;DHT22;8008;50.024;8.172;2024-01-15T06:47:10;-0.60;99.90
15815;DHT22;8008;50.024;8.172;2024-01-15T06:49:38;-0.60;99.90
15815;DHT22;8008;50.024;8.172;2024-01-15T06:52:06;-0.50;99.90
15815;DHT22;8008;50.024;8.172;2024-01-15T06:54:36;-0.60;99.90
15815;DHT22;8008;50.024;8.172;2024-01-15T06:57:04;-0.50;99.90
15815;DHT22;8008;50.024;8.172;2024-01-15T06:59:33;-0.50;99.90
15815;DHT22;8008;50.024;8.172;2024-01-15T07:02:01;-0.50;99.90
15815;DHT22;8008;50.024;8.172;2024-01-15T07:04:30;-0.50;99.90
15815;DHT22;8008;50.024;8.172;2024-01-15T07:06:58;-0.40;99.90
15815;DHT22;8008;50.024;8.172;2024-01-15T07:09:26;-0.40;99.90
15815;DHT22;8008;50.024;8.172;2024-01-15T07:11:55;-0.40;99.90
15815;DHT22;8008;50.024;8.172;2024-01-15T07:14:25;-0.30;99.90
15815;DHT22;8008;50.024;8.172;2024-01-15T07:16:53;-0.30;99.90
15815;DHT22;8008;50.024;8.172;2024-01-15T07:19:21;-0.30;99.90
15815;DHT22;8008;50.024;8.172;2024-01-15T07:21:49;-0.30;99.90
15815;DHT22;8008;50.024;8.172;2024-01-15T07:24:22;-0.20;99.90
15815;DHT22;8008;50.024;8.172;2024-01-15T07:26:50;-0.20;99.90
15815;DHT22;8008;50.024;8.172;2024-01-15T07:29:19;-0.30;99.90
15815;DHT22;8008;50.024;8.172;2024-01-15T07:31:49;-0.20;99.90
15815;DHT22;8008;50.024;8.172;2024-01-15T07:34:17;-0.30;99.90
15815;DHT22;8008;50.024;8.172;2024-01-15T07:36:45;-0.20;99.90
15815;DHT22;8008;50.024;8.172;2024-01-15T07:39:13;-0.20;99.90
15815;DHT22;8008;50.024;8.172;2024-01-15T07:41:41;-0.10;99.90
15815;DHT22;8008;50.024;8.172;2024-01-15T07:44:09;-0.10;99.90
15815;DHT22;8008;50.024;8.172;2024-01-15T07:46:39;-0.10;99.90
15815;DHT22;8008;50.024;8.172;2024-01-15T07:49:07;-0.10;99.90
15815;DHT22;8008;50.024;8.172;2024-01-15T07:51:35;0.00;99.90
15815;DHT22;8008;50.024;8.172;2024-01-15T07:54:04;-0.10;99.90
15815;DHT22;8008;50.024;8.172;2024-01-15T07:56:32;0.00;99.90
15815;DHT22;8008;50.024;8.172;2024-01-15T07:59:00;0.00;99.90
15815;DHT22;8008;50.024;8.172;2024-01-15T08:01:28;0.00;99.90
15815;DHT22;8008;50.024;8.172;2024-01-15T08:03:57;0.00;99.90
15815;DHT22;8008;50.024;8.172;2024-01-15T08:06:25;0.00;99.90
15815;DHT22;8008;50.024;8.172;2024-01-15T08:08:53;0.10;99.90
15815;DHT22;8008;50.024;8.172;2024-01-15T08:11:22;0.10;99.90
15815;DHT22;8008;50.024;8.172;2024-01-15T08:13:49;0.10;99.90
15815;DHT22;8008;50.024;8.172;2024-01-15T08:16:17;0.20;99.90
15815;DHT22;8008;50.024;8.172;2024-01-15T08:18:46;0.20;99.90
15815;DHT22;8008;50.024;8.172;2024-01-15T08:21:16;0.20;99.90
15815;DHT22;8008;50.024;8.172;2024-01-15T08:23:44;0.20;99.90
15815;DHT22;8008;50.024;8.172;2024-01-15T08:26:12;0.30;99.90
15815;DHT22;8008;50.024;8.172;2024-01-15T08:28:40;0.30;99.90
15815;DHT22;8008;50.024;8.172;2024-01-15T08:31:08;0.30;99.90
15815;DHT22;8008;50.024;8.172;2024-01-15T08:33:36;0.30;99.90
15815;DHT22;8008;50.024;8.172;2024-01-15T08:36:04;0.30;99.90
15815;DHT22;8008;50.024;8.172;2024-01-15T08:38:33;0.30;99.90
15815;DHT22;8008;50.024;8.172;2024-01-15T08:41:01;0.30;99.90
15815;DHT22;8008;50.024;8.172;2024-01-15T08:43:29;0.40;99.90
15815;DHT22;8008;50.024;8.172;2024-01-15T08:45:57;0.40;99.90
15815;DHT22;8008;50.024;8.172;2024-01-15T08:48:26;0.40;99.90
15815;DHT22;8008;50.024;8.172;2024-01-15T08:50:54;0.30;99.90
15815;DHT22;8008;50.024;8.172;2024-01-15T08:53:22;0.30;99.90
15815;DHT22;8008;50.024;8.172;2024-01-15T08:55:51;0.30;99.90
15815;DHT22;8008;50.024;8.172;2024-01-15T08:58:19;0.40;99.90
15815;DHT22;8008;50.024;8.172;2024-01-15T09:00:47;0.40;99.90
15815;DHT22;8008;50.024;8.172;2024-01-15T09:03:15;0.40;99.90
15815;DHT22;8008;50.024;8.172;2024-01-15T09:05:43;0.40;99.90
15815;DHT22;8008;50.024;8.172;2024-01-15T09:08:11;0.30;99.90
15815;DHT22;8008;50.024;8.172;2024-01-15T09:10:39;0.30;99.90
15815;DHT22;8008;50.024;8.172;2024-01-15T09:13:08;0.30;99.90
15815;DHT22;8008;50.024;8.172;2024-01-15T09:15:36;0.30;99.90
15815;DHT22;8008;50.024;8.172;2024-01-15T09:18:05;0.30;99.90
15815;DHT22;8008;50.024;8.172;2024-01-15T09:20:34;0.30;99.90
15815;DHT22;8008;50.024;8.172;2024-01-15T09:23:02;0.30;99.90
15815;DHT22;8008;50.024;8.172;2024-01-15T09:25:30;0.30;99.90
15815;DHT22;8008;50.024;8.172;2024-01-15T09:27:58;0.30;99.90
15815;DHT22;8008;50.024;8.172;2024-01-15T09:30:28;0.40;99.90
15815;DHT22;8008;50.024;8.172;2024-01-15T09:32:56;0.40;99.90
15815;DHT22;8008;50.024;8.172;2024-01-15T09:35:25;0.50;99.90
15815;DHT22;8008;50.024;8.172;2024-01-15T09:37:53;0.50;99.90
15815;DHT22;8008;50.024;8.172;2024-01-15T09:40:21;0.50;99.90
15815;DHT22;8008;50.024;8.172;2024-01-15T09:42:50;0.60;99.90
15815;DHT22;8008;50.024;8.172;2024-01-15T09:45:18;0.60;99.90
15815;DHT22;8008;50.024;8.172;2024-01-15T09:47:48;0.70;99.90
15815;DHT22;8008;50.024;8.172;2024-01-15T09:50:16;0.80;99.90
15815;DHT22;8008;50.024;8.172;2024-01-15T09:52:44;0.80;99.90
15815;DHT22;8008;50.024;8.172;2024-01-15T09:55:13;0.80;99.90
15815;DHT22;8008;50.024;8.172;2024-01-15T09:57:42;0.90;99.90
15815;DHT22;8008;50.024;8.172;2024-01-15T10:00:12;0.90;99.90
15815;DHT22;8008;50.024;8.172;2024-01-15T10:02:40;1.00;99.90
15815;DHT22;8008;50.024;8.172;2024-01-15T10:05:10;1.10;99.90
15815;DHT22;8008;50.024;8.172;2024-01-15T10:07:38;1.10;99.90
15815;DHT22;8008;50.024;8.172;2024-01-15T10:10:07;1.10;99.90
15815;DHT22;8008;50.024;8.172;2024-01-15T10:12:36;1.10;99.90
15815;DHT22;8008;50.024;8.172;2024-01-15T10:15:05;1.10;99.90
15815;DHT22;8008;50.024;8.172;2024-01-15T10:17:33;1.20;99.90
15815;DHT22;8008;50.024;8.172;2024-01-15T10:20:01;1.20;99.90
15815;DHT22;8008;50.024;8.172;2024-01-15T10:22:32;1.20;99.90
15815;DHT22;8008;50.024;8.172;2024-01-15T10:25:00;1.10;99.90
15815;DHT22;8008;50.024;8.172;2024-01-15T10:27:29;1.10;99.90
15815;DHT22;8008;50.024;8.172;2024-01-15T10:29:59;1.20;99.90
15815;DHT22;8008;50.024;8.172;2024-01-15T10:32:29;1.10;99.90
15815;DHT22;8008;50.024;8.172;2024-01-15T10:34:57;1.10;99.90
15815;DHT22;8008;50.024;8.172;2024-01-15T10:37:26;1.10;99.90
15815;DHT22;8008;50.024;8.172;2024-01-15T10:39:57;1.10;99.90
15815;DHT22;8008;50.024;8.172;2024-01-15T10:42:25;1.10;99.90
15815;DHT22;8008;50.024;8.172;2024-01-15T10:44:53;1.00;99.90
15815;DHT22;8008;50.024;8.172;2024-01-15T10:47:21;1.10;99.90
15815;DHT22;8008;50.024;8.172;2024-01-15T10:49:49;1.10;99.90
15815;DHT22;8008;50.024;8.172;2024-01-15T10:52:18;1.20;99.90
15815;DHT22;8008;50.024;8.172;2024-01-15T10:54:47;1.30;99.90
15815;DHT22;8008;50.024;8.172;2024-01-15T10:57:17;1.30;99.90
15815;DHT22;8008;50.024;8.172;2024-01-15T10:59:46;1.30;99.90
15815;DHT22;8008;50.024;8.172;2024-01-15T11:02:15;1.40;99.90
15815;DHT22;8008;50.024;8.172;2024-01-15T11:04:43;1.40;99.90
15815;DHT22;8008;50.024;8.172;2024-01-15T11:07:11;1.50;99.90
15815;DHT22;8008;50.024;8.172;2024-01-15T11:09:41;1.50;99.90
15815;DHT22;8008;50.024;8.172;2024-01-15T11:12:11;1.60;99.90
15815;DHT22;8008;50.024;8.172;2024-01-15T11:14:42;1.70;99.90
15815;DHT22;8008;50.024;8.172;2024-01-15T11:17:11;1.80;99.90
15815;DHT22;8008;50.024;8.172;2024-01-15T11:19:43;2.00;99.90
15815;DHT22;8008;50.024;8.172;2024-01-15T11:25:14;2.10;99.90
15815;DHT22;8008;50.024;8.172;2024-01-15T11:27:43;2.10;99.90
15815;DHT22;8008;50.024;8.172;2024-01-15T11:30:15;2.00;99.90
15815;DHT22;8008;50.024;8.172;2024-01-15T11:32:43;2.00;99.90
15815;DHT22;8008;50.024;8.172;2024-01-15T11:35:13;1.90;99.90
15815;DHT22;8008;50.024;8.172;2024-01-15T11:37:57;2.00;99.90
15815;DHT22;8008;50.024;8.172;2024-01-15T11:40:39;2.00;99.90
15815;DHT22;8008;50.024;8.172;2024-01-15T11:43:09;2.10;99.90
15815;DHT22;8008;50.024;8.172;2024-01-15T11:45:41;2.10;99.90
15815;DHT22;8008;50.024;8.172;2024-01-15T11:48:11;2.20;99.90
15815;DHT22;8008;50.024;8.172;2024-01-15T11:50:41;2.10;99.90
15815;DHT22;8008;50.024;8.172;2024-01-15T11:53:30;2.20;99.90
15815;DHT22;8008;50.024;8.172;2024-01-15T11:56:02;2.20;99.90
15815;DHT22;8008;50.024;8.172;2024-01-15T11:58:30;2.30;99.90
15815;DHT22;8008;50.024;8.172;2024-01-15T12:01:00;2.20;99.90
15815;DHT22;8008;50.024;8.172;2024-01-15T12:03:28;2.20;99.90
15815;DHT22;8008;50.024;8.172;2024-01-15T12:05:56;2.20;99.90
15815;DHT22;8008;50.024;8.172;2024-01-15T12:08:25;2.10;99.90
15815;DHT22;8008;50.024;8.172;2024-01-15T12:10:54;2.10;99.90
15815;DHT22;8008;50.024;8.172;2024-01-15T12:13:22;2.20;99.90
15815;DHT22;8008;50.024;8.172;2024-01-15T12:15:50;2.10;99.90
15815;DHT22;8008;50.024;8.172;2024-01-15T12:18:19;2.10;99.90
15815;DHT22;8008;50.024;8.172;2024-01-15T12:20:47;2.10;99.90
15815;DHT22;8008;50.024;8.172;2024-01-15T12:23:17;2.10;99.90
15815;DHT22;8008;50.024;8.172;2024-01-15T12:25:45;2.20;99.90
15815;DHT22;8008;50.024;8.172;2024-01-15T12:28:15;2.20;99.90
15815;DHT22;8008;50.024;8.172;2024-01-15T12:30:47;2.20;99.90
15815;DHT22;8008;50.024;8.172;2024-01-15T12:33:19;2.20;99.90
15815;DHT22;8008;50.024;8.172;2024-01-15T12:35:48;2.30;99.90
15815;DHT22;8008;50.024;8.172;2024-01-15T12:38:18;2.30;99.90
15815;DHT22;8008;50.024;8.172;2024-01-15T12:40:46;2.20;99.90
15815;DHT22;8008;50.024;8.172;2024-01-15T12:43:14;2.20;99.90
15815;DHT22;8008;50.024;8.172;2024-01-15T12:45:42;2.20;99.90
15815;DHT22;8008;50.024;8.172;2024-01-15T12:48:10;2.20;99.90
15815;DHT22;8008;50.024;8.172;2024-01-15T12:50:43;2.30;99.90
15815;DHT22;8008;50.024;8.172;2024-01-15T12:53:12;2.30;99.90
15815;DHT22;8008;50.024;8.172;2024-01-15T12:55:40;2.40;99.90
15815;DHT22;8008;50.024;8.172;2024-01-15T12:58:08;2.40;99.90
15815;DHT22;8008;50.024;8.172;2024-01-15T13:00:36;2.40;99.90
15815;DHT22;8008;50.024;8.172;2024-01-15T13:03:04;2.40;99.90
15815;DHT22;8008;50.024;8.172;2024-01-15T13:05:32;2.50;99.90
15815;DHT22;8008;50.024;8.172;2024-01-15T13:08:03;2.50;99.90
15815;DHT22;8008;50.024;8.172;2024-01-15T13:10:31;2.50;99.90
15815;DHT22;8008;50.024;8.172;2024-01-15T13:12:59;2.50;99.90
15815;DHT22;8008;50.024;8.172;2024-01-15T13:15:29;2.50;99.90
15815;DHT22;8008;50.024;8.172;2024-01-15T13:17:58;2.50;99.90
15815;DHT22;8008;50.024;8.172;2024-01-15T13:20:26;2.60;99.90
15815;DHT22;8008;50.024;8.172;2024-01-15T13:22:54;2.50;99.90
15815;DHT22;8008;50.024;8.172;2024-01-15T13:25:23;2.50;99.90
15815;DHT22;8008;50.024;8.172;2024-01-15T13:27:51;2.60;99.90
15815;DHT22;8008;50.024;8.172;2024-01-15T13:30:22;2.50;99.90
15815;DHT22;8008;50.024;8.172;2024-01-15T13:32:50;2.60;99.90
15815;DHT22;8008;50.024;8.172;2024-01-15T13:35:19;2.60;99.90
15815;DHT22;8008;50.024;8.172;2024-01-15T13:37:47;2.60;99.90
15815;DHT22;8008;50.024;8.172;2024-01-15T13:40:15;2.50;99.90
15815;DHT22;8008;50.024;8.172;2024-01-15T13:42:48;2.60;99.90
15815;DHT22;8008;50.024;8.172;2024-01-15T13:45:18;2.50;99.90
15815;DHT22;8008;50.024;8.172;2024-01-15T13:47:47;2.60;99.90
15815;DHT22;8008;50.024;8.172;2024-01-15T13:50:15;2.60;99.90
15815;DHT22;8008;50.024;8.172;2024-01-15T13:52:43;2.60;99.90
15815;DHT22;8008;50.024;8.172;2024-01-15T13:55:11;2.60;99.90
15815;DHT22;8008;50.024;8.172;2024-01-15T13:57:39;2.60;99.90
15815;DHT22;8008;50.024;8.172;2024-01-15T14:00:10;2.70;99.90
15815;DHT22;8008;50.024;8.172;2024-01-15T14:02:39;2.70;99.90
15815;DHT22;8008;50.024;8.172;2024-01-15T14:05:08;2.70;99.90
15815;DHT22;8008;50.024;8.172;2024-01-15T14:07:39;2.60;99.90
15815;DHT22;8008;50.024;8.172;2024-01-15T14:10:08;2.70;99.90
15815;DHT22;8008;50.024;8.172;2024-01-15T14:12:36;2.70;99.90
15815;DHT22;8008;50.024;8.172;2024-01-15T14:15:05;2.70;99.90
15815;DHT22;8008;50.024;8.172;2024-01-15T14:17:35;2.70;99.90
15815;DHT22;8008;50.024;8.172;2024-01-15T14:20:04;2.70;99.90
15815;DHT22;8008;50.024;8.172;2024-01-15T14:22:33;2.70;99.90
15815;DHT22;8008;50.024;8.172;2024-01-15T14:25:01;2.70;99.90
15815;DHT22;8008;50.024;8.172;2024-01-15T14:27:29;2.70;99.90
15815;DHT22;8008;50.024;8.172;2024-01-15T14:29:57;2.60;99.90
15815;DHT22;8008;50.024;8.172;2024-01-15T14:32:25;2.60;99.90
15815;DHT22;8008;50.024;8.172;2024-01-15T14:34:55;2.60;99.90
15815;DHT22;8008;50.024;8.172;2024-01-15T14:37:24;2.70;99.90
15815;DHT22;8008;50.024;8.172;2024-01-15T14:39:52;2.70;99.90
15815;DHT22;8008;50.024;8.172;2024-01-15T14:42:20;2.70;99.90
15815;DHT22;8008;50.024;8.172;2024-01-15T14:44:48;2.70;99.90
15815;DHT22;8008;50.024;8.172;2024-01-15T14:47:16;2.80;99.90
15815;DHT22;8008;50.024;8.172;2024-01-15T14:49:47;2.70;99.90
15815;DHT22;8008;50.024;8.172;2024-01-15T14:52:16;2.70;99.90
15815;DHT22;8008;50.024;8.172;2024-01-15T14:54:44;2.70;99.90
15815;DHT22;8008;50.024;8.172;2024-01-15T14:57:15;2.70;99.90
15815;DHT22;8008;50.024;8.172;2024-01-15T14:59:43;2.70;99.90
15815;DHT22;8008;50.024;8.172;2024-01-15T15:02:12;2.70;99.90
15815;DHT22;8008;50.024;8.172;2024-01-15T15:04:41;2.70;99.90
15815;DHT22;8008;50.024;8.172;2024-01-15T15:07:16;2.70;99.90
15815;DHT22;8008;50.024;8.172;2024-01-15T15:09:47;2.70;99.90
15815;DHT22;8008;50.024;8.172;2024-01-15T15:12:17;2.70;99.90
15815;DHT22;8008;50.024;8.172;2024-01-15T15:14:45;2.70;99.90
15815;DHT22;8008;50.024;8.172;2024-01-15T15:17:29;2.70;99.90
15815;DHT22;8008;50.024;8.172;2024-01-15T15:19:58;2.60;99.90
15815;DHT22;8008;50.024;8.172;2024-01-15T15:22:28;2.60;99.90
15815;DHT22;8008;50.024;8.172;2024-01-15T15:24:56;2.60;99.90
15815;DHT22;8008;50.024;8.172;2024-01-15T15:27:24;2.60;99.90
15815;DHT22;8008;50.024;8.172;2024-01-15T15:29:54;2.60;99.90
15815;DHT22;8008;50.024;8.172;2024-01-15T15:32:22;2.60;99.90
15815;DHT22;8008;50.024;8.172;2024-01-15T15:34:51;2.60;99.90
15815;DHT22;8008;50.024;8.172;2024-01-15T15:37:20;2.60;99.90
15815;DHT22;8008;50.024;8.172;2024-01-15T15:39:49;2.50;99.90
15815;DHT22;8008;50.024;8.172;2024-01-15T15:42:17;2.50;99.90
15815;DHT22;8008;50.024;8.172;2024-01-15T15:44:46;2.50;99.90
15815;DHT22;8008;50.024;8.172;2024-01-15T15:47:18;2.40;99.90
15815;DHT22;8008;50.024;8.172;2024-01-15T15:49:46;2.40;99.90
15815;DHT22;8008;50.024;8.172;2024-01-15T15:52:14;2.40;99.90
15815;DHT22;8008;50.024;8.172;2024-01-15T15:54:43;2.30;99.90
15815;DHT22;8008;50.024;8.172;2024-01-15T15:57:12;2.30;99.90
15815;DHT22;8008;50.024;8.172;2024-01-15T15:59:40;2.30;99.90
15815;DHT22;8008;50.024;8.172;2024-01-15T16:02:07;2.30;99.90
15815;DHT22;8008;50.024;8.172;2024-01-15T16:04:35;2.30;99.90
15815;DHT22;8008;50.024;8.172;2024-01-15T16:07:03;2.30;99.90
15815;DHT22;8008;50.024;8.172;2024-01-15T16:09:36;2.20;99.90
15815;DHT22;8008;50.024;8.172;2024-01-15T16:12:05;2.30;99.90
15815;DHT22;8008;50.024;8.172;2024-01-15T16:14:34;2.20;99.90
15815;DHT22;8008;50.024;8.172;2024-01-15T16:17:02;2.20;99.90
15815;DHT22;8008;50.024;8.172;2024-01-15T16:19:50;2.20;99.90
15815;DHT22;8008;50.024;8.172;2024-01-15T16:22:38;2.20;99.90
15815;DHT22;8008;50.024;8.172;2024-01-15T16:25:26;2.20;99.90
15815;DHT22;8008;50.024;8.172;2024-01-15T16:27:55;2.20;99.90
15815;DHT22;8008;50.024;8.172;2024-01-15T16:30:24;2.20;99.90
15815;DHT22;8008;50.024;8.172;2024-01-15T16:33:07;2.20;99.90
15815;DHT22;8008;50.024;8.172;2024-01-15T16:35:35;2.30;99.90
15815;DHT22;8008;50.024;8.172;2024-01-15T16:38:04;2.30;99.90
15815;DHT22;8008;50.024;8.172;2024-01-15T16:40:32;2.40;99.90
15815;DHT22;8008;50.024;8.172;2024-01-15T16:43:00;2.40;99.90
15815;DHT22;8008;50.024;8.172;2024-01-15T16:45:29;2.40;99.90
15815;DHT22;8008;50.024;8.172;2024-01-15T16:47:57;2.30;99.90
15815;DHT22;8008;50.024;8.172;2024-01-15T16:50:26;2.30;99.90
15815;DHT22;8008;50.024;8.172;2024-01-15T16:52:54;2.40;99.90
15815;DHT22;8008;50.024;8.172;2024-01-15T16:55:22;2.40;99.90
15815;DHT22;8008;50.024;8.172;2024-01-15T16:57:50;2.40;99.90
15815;DHT22;8008;50.024;8.172;2024-01-15T17:00:18;2.40;99.90
15815;DHT22;8008;50.024;8.172;2024-01-15T17:02:47;2.40;99.90
15815;DHT22;8008;50.024;8.172;2024-01-15T17:05:15;2.30;99.90
15815;DHT22;8008;50.024;8.172;2024-01-15T17:07:43;2.30;99.90
15815;DHT22;8008;50.024;8.172;2024-01-15T17:10:12;2.30;99.90
15815;DHT22;8008;50.024;8.172;2024-01-15T17:12:40;2.30;99.90
15815;DHT22;8008;50.024;8.172;2024-01-15T17:15:08;2.30;99.90
15815;DHT22;8008;50.024;8.172;2024-01-15T17:17:36;2.20;99.90
15815;DHT22;8008;50.024;8.172;2024-01-15T17:20:07;2.20;99.90
15815;DHT22;8008;50.024;8.172;2024-01-15T17:22:36;2.20;99.90
15815;DHT22;8008;50.024;8.172;2024-01-15T17:25:05;2.20;99.90
15815;DHT22;8008;50.024;8.172;2024-01-15T17:27:33;2.20;99.90
15815;DHT22;8008;50.024;8.172;2024-01-15T17:30:01;2.20;99.90
15815;DHT22;8008;50.024;8.172;2024-01-15T17:32:29;2.20;99.90
15815;DHT22;8008;50.024;8.172;2024-01-15T17:34:57;2.20;99.90
15815;DHT22;8008;50.024;8.172;2024-01-15T17:37:26;2.00;99.90
15815;DHT22;8008;50.024;8.172;2024-01-15T17:39:55;1.90;99.90
15815;DHT22;8008;50.024;8.172;2024-01-15T17:42:23;1.70;99.90
15815;DHT22;8008;50.024;8.172;2024-01-15T17:44:51;1.60;99.90
15815;DHT22;8008;50.024;8.172;2024-01-15T17:47:19;1.50;99.90
15815;DHT22;8008;50.024;8.172;2024-01-15T17:49:47;1.50;99.90
15815;DHT22;8008;50.024;8.172;2024-01-15T17:52:15;1.50;99.90
15815;DHT22;8008;50.024;8.172;2024-01-15T17:54:45;1.50;99.90
15815;DHT22;8008;50.024;8.172;2024-01-15T17:57:13;1.50;99.90
15815;DHT22;8008;50.024;8.172;2024-01-15T17:59:41;1.50;99.90
15815;DHT22;8008;50.024;8.172;2024-01-15T18:02:09;1.50;99.90
15815;DHT22;8008;50.024;8.172;2024-01-15T18:04:37;1.50;99.90
15815;DHT22;8008;50.024;8.172;2024-01-15T18:07:13;1.50;99.90
15815;DHT22;8008;50.024;8.172;2024-01-15T18:09:41;1.60;99.90
15815;DHT22;8008;50.024;8.172;2024-01-15T18:12:10;1.60;99.90
15815;DHT22;8008;50.024;8.172;2024-01-15T18:14:38;1.60;99.90
15815;DHT22;8008;50.024;8.172;2024-01-15T18:17:06;1.60;99.90
15815;DHT22;8008;50.024;8.172;2024-01-15T18:19:34;1.60;99.90
15815;DHT22;8008;50.024;8.172;2024-01-15T18:22:03;1.60;99.90
15815;DHT22;8008;50.024;8.172;2024-01-15T18:24:34;1.60;99.90
15815;DHT22;8008;50.024;8.172;2024-01-15T18:27:03;1.60;99.90
15815;DHT22;8008;50.024;8.172;2024-01-15T18:29:31;1.60;99.90
15815;DHT22;8008;50.024;8.172;2024-01-15T18:31:59;1.60;99.90
15815;DHT22;8008;50.024;8.172;2024-01-15T18:34:27;1.60;99.90
15815;DHT22;8008;50.024;8.172;2024-01-15T18:36:55;1.70;99.90
15815;DHT22;8008;50.024;8.172;2024-01-15T18:39:23;1.70;99.90
15815;DHT22;8008;50.024;8.172;2024-01-15T18:41:52;1.80;99.90
15815;DHT22;8008;50.024;8.172;2024-01-15T18:44:21;1.80;99.90
15815;DHT22;8008;50.024;8.172;2024-01-15T18:46:49;1.80;99.90
15815;DHT22;8008;50.024;8.172;2024-01-15T18:49:17;1.80;99.90
15815;DHT22;8008;50.024;8.172;2024-01-15T18:51:46;1.80;99.90
15815;DHT22;8008;50.024;8.172;2024-01-15T18:54:20;1.80;99.90
15815;DHT22;8008;50.024;8.172;2024-01-15T18:56:48;1.80;99.90
15815;DHT22;8008;50.024;8.172;2024-01-15T18:59:18;1.90;99.90
15815;DHT22;8008;50.024;8.172;2024-01-15T19:01:46;1.90;99.90
15815;DHT22;8008;50.024;8.172;2024-01-15T19:04:14;1.90;99.90
15815;DHT22;8008;50.024;8.172;2024-01-15T19:06:42;1.90;99.90
15815;DHT22;8008;50.024;8.172;2024-01-15T19:09:14;1.90;99.90
15815;DHT22;8008;50.024;8.172;2024-01-15T19:11:42;1.90;99.90
15815;DHT22;8008;50.024;8.172;2024-01-15T19:14:11;1.80;99.90
15815;DHT22;8008;50.024;8.172;2024-01-15T19:16:40;1.80;99.90
15815;DHT22;8008;50.024;8.172;2024-01-15T19:19:08;1.80;99.90
15815;DHT22;8008;50.024;8.172;2024-01-15T19:21:36;1.90;99.90
15815;DHT22;8008;50.024;8.172;2024-01-15T19:24:04;1.90;99.90
15815;DHT22;8008;50.024;8.172;2024-01-15T19:26:32;2.00;99.90
15815;DHT22;8008;50.024;8.172;2024-01-15T19:29:00;2.00;99.90
15815;DHT22;8008;50.024;8.172;2024-01-15T19:31:28;2.00;99.90
15815;DHT22;8008;50.024;8.172;2024-01-15T19:33:58;2.00;99.90
15815;DHT22;8008;50.024;8.172;2024-01-15T19:36:26;2.00;99.90
15815;DHT22;8008;50.024;8.172;2024-01-15T19:38:54;2.00;99.90
15815;DHT22;8008;50.024;8.172;2024-01-15T19:41:22;2.00;99.90
15815;DHT22;8008;50.024;8.172;2024-01-15T19:43:51;2.00;99.90
15815;DHT22;8008;50.024;8.172;2024-01-15T19:46:19;2.00;99.90
15815;DHT22;8008;50.024;8.172;2024-01-15T19:48:48;2.00;99.90
15815;DHT22;8008;50.024;8.172;2024-01-15T19:51:18;2.00;99.90
15815;DHT22;8008;50.024;8.172;2024-01-15T19:53:46;2.00;99.90
15815;DHT22;8008;50.024;8.172;2024-01-15T19:56:14;2.00;99.90
15815;DHT22;8008;50.024;8.172;2024-01-15T19:58:44;2.00;99.90
15815;DHT22;8008;50.024;8.172;2024-01-15T20:01:12;2.00;99.90
15815;DHT22;8008;50.024;8.172;2024-01-15T20:03:40;2.00;99.90
15815;DHT22;8008;50.024;8.172;2024-01-15T20:06:11;2.00;99.90
15815;DHT22;8008;50.024;8.172;2024-01-15T20:08:42;2.00;99.90
15815;DHT22;8008;50.024;8.172;2024-01-15T20:11:10;2.00;99.90